Time;durP1;ratioP1;P1;durP2;ratioP2;P2;SDS_P1;SDS_P2;PMS_P1;PMS_P2;Temp;Humidity;BMP_temperature;BMP_pressure;BME280_temperature;BME280_humidity;BME280_pressure;Samples;Min_cycle;Max_cycle;Signal;HPM_P1;HPM_P2
2021/05/29 00:01:00;;;;;;;3.23;2.93;;;13.70;96.70;;;;;;4992178;28;20209;-57
2021/05/29 00:03:26;;;;;;;3.22;2.92;;;13.70;96.50;;;;;;4993979;28;20434;-57
2021/05/29 00:05:53;;;;;;;4.00;2.97;;;14.00;96.70;;;;;;4992800;28;20206;-58
2021/05/29 00:08:19;;;;;;;2.85;2.65;;;13.70;96.10;;;;;;4992445;28;20186;-58
2021/05/29 00:10:48;;;;;;;3.40;3.10;;;13.70;96.00;;;;;;4984707;28;20700;-57
2021/05/29 00:13:14;;;;;;;3.17;2.88;;;14.00;96.00;;;;;;4992250;28;20193;-58
2021/05/29 00:15:40;;;;;;;2.80;2.70;;;14.00;96.20;;;;;;4991981;28;20676;-58
2021/05/29 00:18:07;;;;;;;3.03;2.65;;;14.10;96.20;;;;;;4991015;28;20458;-58
2021/05/29 00:20:34;;;;;;;3.45;2.55;;;13.90;96.00;;;;;;4993393;28;20545;-58
2021/05/29 00:23:00;;;;;;;3.00;2.72;;;13.90;96.40;;;;;;4993855;28;20191;-57
2021/05/29 00:25:25;;;;;;;2.97;2.77;;;13.90;96.50;;;;;;4992362;28;20667;-58
2021/05/29 00:27:51;;;;;;;3.03;2.60;;;14.00;96.50;;;;;;4991946;28;20187;-58
2021/05/29 00:30:17;;;;;;;4.00;2.70;;;13.80;96.30;;;;;;4991105;28;20544;-57
2021/05/29 00:32:43;;;;;;;5.70;2.80;;;14.00;96.30;;;;;;4991838;28;20201;-58
2021/05/29 00:35:09;;;;;;;2.83;2.63;;;13.60;96.10;;;;;;4991525;28;20292;-58
2021/05/29 00:37:38;;;;;;;2.85;2.53;;;13.70;96.40;;;;;;4991766;28;20676;-57
2021/05/29 00:40:06;;;;;;;4.53;2.80;;;13.70;96.70;;;;;;4991249;28;20615;-57
2021/05/29 00:42:32;;;;;;;3.30;3.00;;;13.10;96.70;;;;;;4991633;28;20186;-57
2021/05/29 00:44:58;;;;;;;3.20;2.90;;;13.60;97.10;;;;;;4991731;28;20672;-57
2021/05/29 00:47:30;;;;;;;3.45;2.53;;;13.60;97.40;;;;;;4991669;28;20194;-59
2021/05/29 00:50:00;;;;;;;3.40;3.10;;;13.60;97.10;;;;;;4991308;28;20566;-58
2021/05/29 00:52:26;;;;;;;6.00;2.72;;;13.70;96.90;;;;;;4990619;28;20669;-58
2021/05/29 00:54:53;;;;;;;3.00;2.80;;;13.60;97.40;;;;;;4990979;28;20705;-58
2021/05/29 00:57:19;;;;;;;2.78;2.58;;;13.60;97.80;;;;;;4991433;28;20190;-57
2021/05/29 00:59:45;;;;;;;3.58;2.55;;;13.30;97.50;;;;;;4989895;28;20187;-57
2021/05/29 01:02:14;;;;;;;3.58;2.80;;;13.50;97.60;;;;;;4991177;28;20667;-58
2021/05/29 01:04:40;;;;;;;3.83;2.85;;;13.40;97.50;;;;;;4990676;28;20229;-57
2021/05/29 01:07:14;;;;;;;3.30;3.00;;;13.50;97.70;;;;;;4990786;28;20619;-57
2021/05/29 01:09:41;;;;;;;3.72;2.42;;;13.10;97.30;;;;;;4991089;28;20613;-58
2021/05/29 01:12:09;;;;;;;2.97;2.67;;;13.40;97.60;;;;;;4990994;28;20214;-57
2021/05/29 01:14:39;;;;;;;2.97;2.75;;;13.30;98.10;;;;;;4990609;28;20212;-57
2021/05/29 01:17:05;;;;;;;3.45;2.88;;;13.50;98.50;;;;;;4991069;28;20198;-57
2021/05/29 01:19:31;;;;;;;3.00;2.70;;;13.10;98.60;;;;;;4990704;28;20194;-58
2021/05/29 01:22:07;;;;;;;2.50;2.27;;;13.30;98.90;;;;;;4990906;28;20723;-59
2021/05/29 01:24:33;;;;;;;2.25;2.05;;;13.30;98.90;;;;;;4985774;28;20239;-58
2021/05/29 01:26:59;;;;;;;2.57;2.37;;;13.00;98.40;;;;;;4990663;28;20191;-58
2021/05/29 01:29:24;;;;;;;3.10;2.80;;;13.10;98.50;;;;;;4990831;28;20198;-58
2021/05/29 01:32:00;;;;;;;2.80;2.60;;;13.30;98.90;;;;;;4990858;28;20238;-58
2021/05/29 01:34:35;;;;;;;2.88;2.67;;;13.20;99.10;;;;;;4990504;28;20684;-58
2021/05/29 01:37:03;;;;;;;2.90;2.70;;;13.20;99.00;;;;;;4989162;28;20609;-58
2021/05/29 01:39:30;;;;;;;3.70;3.40;;;13.10;99.00;;;;;;4985025;28;20216;-57
2021/05/29 01:41:56;;;;;;;3.53;3.33;;;13.40;99.40;;;;;;4990395;28;20221;-58
2021/05/29 01:44:22;;;;;;;3.20;3.00;;;12.90;99.00;;;;;;4992111;28;20566;-58
2021/05/29 01:46:50;;;;;;;4.85;2.80;;;13.20;99.60;;;;;;4990275;28;20447;-58
2021/05/29 01:49:16;;;;;;;2.75;2.55;;;13.10;99.60;;;;;;4982932;28;20557;-58
2021/05/29 01:51:42;;;;;;;3.35;2.70;;;13.00;99.60;;;;;;4989463;28;20741;-58
2021/05/29 01:54:08;;;;;;;3.20;2.90;;;13.00;99.90;;;;;;4989145;28;20282;-58
2021/05/29 01:56:33;;;;;;;3.40;3.13;;;12.90;99.90;;;;;;4989768;28;20217;-58
2021/05/29 01:58:59;;;;;;;3.20;2.73;;;13.20;99.90;;;;;;4988438;28;20226;-58
2021/05/29 02:01:24;;;;;;;5.63;2.80;;;13.20;99.90;;;;;;4990266;28;20202;-57
2021/05/29 02:03:50;;;;;;;3.17;2.87;;;13.10;99.90;;;;;;4990211;28;20197;-58
2021/05/29 02:06:16;;;;;;;2.80;2.60;;;13.20;99.90;;;;;;4989586;28;20259;-58
2021/05/29 02:08:42;;;;;;;3.30;3.00;;;13.10;99.80;;;;;;4989833;28;20213;-57
2021/05/29 02:11:08;;;;;;;3.00;2.70;;;13.40;99.70;;;;;;4989378;28;20202;-57
2021/05/29 02:13:37;;;;;;;2.60;2.50;;;13.20;99.70;;;;;;4990210;28;20179;-58
2021/05/29 02:16:05;;;;;;;3.22;2.92;;;13.20;99.70;;;;;;4989362;28;20211;-58
2021/05/29 02:18:31;;;;;;;3.50;3.20;;;13.30;99.80;;;;;;4989543;28;20194;-58
2021/05/29 02:21:01;;;;;;;3.60;3.17;;;13.20;99.90;;;;;;4989334;28;20252;-58
2021/05/29 02:23:35;;;;;;;3.60;3.30;;;13.30;99.90;;;;;;4989621;28;20487;-58
2021/05/29 02:26:07;;;;;;;3.90;3.60;;;13.10;99.90;;;;;;5005377;28;20683;-58
2021/05/29 02:28:37;;;;;;;2.97;2.78;;;13.30;99.90;;;;;;4983539;28;20198;-57
2021/05/29 02:31:04;;;;;;;2.53;2.42;;;12.80;99.90;;;;;;4986086;28;20270;-58
2021/05/29 02:33:30;;;;;;;2.80;2.60;;;13.00;99.90;;;;;;4986987;28;20273;-57
2021/05/29 02:35:57;;;;;;;3.00;2.70;;;13.00;99.90;;;;;;4988748;28;20214;-57
2021/05/29 02:38:27;;;;;;;6.43;2.90;;;12.90;99.90;;;;;;4989499;28;20456;-58
2021/05/29 02:40:53;;;;;;;2.90;2.63;;;13.00;99.90;;;;;;4989462;28;20236;-58
2021/05/29 02:43:19;;;;;;;3.38;3.00;;;13.00;99.90;;;;;;4989361;28;20190;-58
2021/05/29 02:45:45;;;;;;;3.37;3.13;;;12.90;99.90;;;;;;4989090;28;20224;-58
2021/05/29 02:48:12;;;;;;;3.10;2.80;;;13.00;99.90;;;;;;4989590;28;20654;-57
2021/05/29 02:50:41;;;;;;;3.20;3.00;;;12.80;99.90;;;;;;4988845;28;20240;-57
2021/05/29 02:53:09;;;;;;;3.28;2.97;;;12.70;99.90;;;;;;4988988;28;20300;-58
2021/05/29 02:55:36;;;;;;;3.10;2.88;;;12.50;99.90;;;;;;4988998;28;20201;-58
2021/05/29 02:58:02;;;;;;;2.85;2.65;;;12.50;99.90;;;;;;4989251;28;20284;-58
2021/05/29 03:00:34;;;;;;;2.90;2.70;;;12.40;99.90;;;;;;4988466;28;20189;-58
2021/05/29 03:03:02;;;;;;;3.15;2.85;;;12.30;99.90;;;;;;4991278;28;20217;-56
2021/05/29 03:05:29;;;;;;;3.25;2.95;;;12.30;99.90;;;;;;4988856;28;20213;-58
2021/05/29 03:07:54;;;;;;;3.58;3.28;;;12.30;99.90;;;;;;4989321;28;20647;-58
2021/05/29 03:10:21;;;;;;;3.43;3.13;;;12.40;99.90;;;;;;4988996;28;20203;-58
2021/05/29 03:12:48;;;;;;;2.72;2.53;;;12.20;99.90;;;;;;4989092;28;20468;-57
2021/05/29 03:15:16;;;;;;;3.50;3.05;;;12.50;99.90;;;;;;4988594;28;20209;-57
2021/05/29 03:17:43;;;;;;;3.55;3.33;;;12.30;99.90;;;;;;4989057;28;20219;-57
2021/05/29 03:20:12;;;;;;;3.60;3.30;;;12.40;99.90;;;;;;4988974;28;20193;-57
2021/05/29 03:22:38;;;;;;;3.47;3.17;;;11.90;99.90;;;;;;4989088;28;20639;-57
2021/05/29 03:25:06;;;;;;;3.53;3.22;;;12.30;99.90;;;;;;4988726;28;20213;-59
2021/05/29 03:27:32;;;;;;;4.20;3.80;;;12.00;99.90;;;;;;4989047;28;20195;-58
2021/05/29 03:29:58;;;;;;;3.80;3.50;;;12.00;99.90;;;;;;4988893;28;20275;-58
2021/05/29 03:32:24;;;;;;;3.67;3.27;;;11.80;99.90;;;;;;4988687;28;20286;-57
2021/05/29 03:34:49;;;;;;;3.93;3.50;;;12.00;99.90;;;;;;4988668;28;20300;-58
2021/05/29 03:37:15;;;;;;;3.67;3.30;;;12.00;99.90;;;;;;4988584;28;20314;-57
2021/05/29 03:39:40;;;;;;;4.37;3.27;;;12.20;99.90;;;;;;4988823;28;20191;-58
2021/05/29 03:42:07;;;;;;;3.33;3.10;;;11.90;99.90;;;;;;4988748;28;20236;-58
2021/05/29 03:44:33;;;;;;;4.65;3.60;;;11.90;99.90;;;;;;4990372;28;20192;-57
2021/05/29 03:46:58;;;;;;;4.57;3.80;;;12.20;99.90;;;;;;4988739;28;20469;-57
2021/05/29 03:49:24;;;;;;;3.80;3.50;;;12.10;99.90;;;;;;4988823;28;20440;-58
2021/05/29 03:51:50;;;;;;;3.90;3.10;;;12.10;99.90;;;;;;4988924;28;20212;-57
2021/05/29 03:54:15;;;;;;;4.53;3.47;;;12.00;99.90;;;;;;4988572;28;20193;-58
2021/05/29 03:56:41;;;;;;;3.30;3.10;;;12.10;99.90;;;;;;4983943;28;20345;-58
2021/05/29 03:59:12;;;;;;;3.70;3.30;;;12.00;99.90;;;;;;4989227;28;20368;-58
2021/05/29 04:01:38;;;;;;;4.78;3.00;;;12.10;99.90;;;;;;4983983;28;20197;-58
2021/05/29 04:04:06;;;;;;;3.50;3.20;;;12.20;99.90;;;;;;4988381;28;20575;-58
2021/05/29 04:06:31;;;;;;;3.78;3.40;;;12.10;99.90;;;;;;4988590;28;20354;-58
2021/05/29 04:08:57;;;;;;;5.50;3.83;;;12.20;99.90;;;;;;4988341;28;20705;-58
2021/05/29 04:11:23;;;;;;;3.93;3.63;;;12.20;99.90;;;;;;4988474;28;20823;-58
2021/05/29 04:13:49;;;;;;;3.70;3.40;;;12.30;99.90;;;;;;4988332;28;20550;-57
2021/05/29 04:16:14;;;;;;;6.10;3.67;;;12.30;99.90;;;;;;4990065;28;20202;-58
2021/05/29 04:18:40;;;;;;;4.23;3.87;;;12.30;99.90;;;;;;4992234;28;20190;-58
2021/05/29 04:21:05;;;;;;;8.27;4.30;;;12.30;99.90;;;;;;4993604;28;20193;-58
2021/05/29 04:23:31;;;;;;;4.70;4.30;;;12.40;99.90;;;;;;4991827;28;20194;-57
2021/05/29 04:25:57;;;;;;;4.47;4.07;;;12.40;99.90;;;;;;4991343;28;20288;-58
2021/05/29 04:28:23;;;;;;;4.73;3.80;;;12.80;99.90;;;;;;4991709;28;20193;-58
2021/05/29 04:30:48;;;;;;;3.70;3.40;;;12.70;99.90;;;;;;4992707;28;20266;-57
2021/05/29 04:33:14;;;;;;;7.40;4.13;;;12.90;99.90;;;;;;4991142;28;20212;-57
2021/05/29 04:35:39;;;;;;;4.97;3.93;;;12.50;99.90;;;;;;4990063;28;20681;-57
2021/05/29 04:38:05;;;;;;;4.30;3.90;;;12.90;99.90;;;;;;4982642;28;20177;-58
2021/05/29 04:40:31;;;;;;;4.70;4.30;;;12.80;99.90;;;;;;4990668;28;20198;-57
2021/05/29 04:43:00;;;;;;;4.40;4.10;;;12.80;99.90;;;;;;4993334;28;20280;-58
2021/05/29 04:45:26;;;;;;;4.38;4.07;;;13.10;99.90;;;;;;4988885;28;20317;-57
2021/05/29 04:47:53;;;;;;;4.95;4.50;;;13.50;99.90;;;;;;4990526;28;20192;-56
2021/05/29 04:50:20;;;;;;;5.10;4.70;;;13.20;99.90;;;;;;4982639;28;20220;-57
2021/05/29 04:52:47;;;;;;;7.78;4.18;;;13.30;99.90;;;;;;4987667;28;20298;-57
2021/05/29 04:55:14;;;;;;;4.80;4.30;;;13.60;99.90;;;;;;4984402;28;20258;-58
2021/05/29 04:57:39;;;;;;;5.00;4.60;;;13.50;99.90;;;;;;4997926;28;20192;-59
2021/05/29 05:00:14;;;;;;;4.50;4.20;;;13.50;99.90;;;;;;4982310;28;20195;-60
2021/05/29 05:02:40;;;;;;;5.28;4.80;;;13.70;99.90;;;;;;4985798;28;20194;-56
2021/05/29 05:05:07;;;;;;;4.63;4.20;;;13.70;99.90;;;;;;4985271;28;20222;-58
2021/05/29 05:07:33;;;;;;;3.97;3.67;;;14.00;99.90;;;;;;4985680;28;20264;-59
2021/05/29 05:09:59;;;;;;;4.97;4.53;;;14.00;99.90;;;;;;4983277;28;20663;-58
2021/05/29 05:12:25;;;;;;;4.50;4.20;;;13.80;99.90;;;;;;4986395;28;20222;-60
2021/05/29 05:14:50;;;;;;;5.50;5.00;;;13.90;99.90;;;;;;4985233;28;20207;-61
2021/05/29 05:17:16;;;;;;;4.80;4.43;;;13.90;99.40;;;;;;4986412;28;20193;-60
2021/05/29 05:19:42;;;;;;;5.47;4.90;;;14.00;99.20;;;;;;4984773;28;20191;-60
2021/05/29 05:22:07;;;;;;;5.20;4.80;;;13.90;99.20;;;;;;4986453;28;21341;-59
2021/05/29 05:24:33;;;;;;;8.13;4.63;;;14.10;99.30;;;;;;4985246;28;20667;-58
2021/05/29 05:26:59;;;;;;;7.97;4.83;;;14.20;99.10;;;;;;4985330;28;20192;-58
2021/05/29 05:29:24;;;;;;;4.30;3.93;;;14.10;98.10;;;;;;4983954;28;20223;-58
2021/05/29 05:31:50;;;;;;;4.67;4.27;;;14.50;97.80;;;;;;4982896;28;20754;-59
2021/05/29 05:34:16;;;;;;;4.88;4.50;;;14.30;97.80;;;;;;4984183;28;20668;-56
2021/05/29 05:36:43;;;;;;;8.67;7.87;;;14.30;97.30;;;;;;4982026;28;20239;-59
2021/05/29 05:39:10;;;;;;;5.20;4.70;;;14.40;97.30;;;;;;4985415;28;21041;-58
2021/05/29 05:41:37;;;;;;;5.28;4.82;;;14.50;97.10;;;;;;4984648;28;20204;-58
2021/05/29 05:44:03;;;;;;;4.78;4.38;;;14.70;96.80;;;;;;4983898;28;20187;-57
2021/05/29 05:46:29;;;;;;;4.35;3.95;;;14.80;96.60;;;;;;4981398;28;20211;-57
2021/05/29 05:48:54;;;;;;;5.30;3.93;;;14.60;96.30;;;;;;4983752;28;20709;-59
2021/05/29 05:51:20;;;;;;;7.70;4.40;;;14.70;96.20;;;;;;4984097;28;20652;-58
2021/05/29 05:53:46;;;;;;;4.13;3.83;;;14.60;96.20;;;;;;4984120;28;20179;-57
2021/05/29 05:56:15;;;;;;;4.73;4.10;;;14.70;96.30;;;;;;4980416;28;20591;-57
2021/05/29 05:58:40;;;;;;;4.25;3.85;;;14.60;95.80;;;;;;4981560;28;20188;-55
2021/05/29 06:01:07;;;;;;;5.13;4.23;;;14.70;96.00;;;;;;4986933;28;20184;-58
2021/05/29 06:03:34;;;;;;;4.50;4.10;;;14.60;96.10;;;;;;4986055;28;20266;-58
2021/05/29 06:05:59;;;;;;;7.35;3.95;;;14.80;96.10;;;;;;4981895;28;20200;-58
2021/05/29 06:08:25;;;;;;;5.80;4.50;;;15.10;95.50;;;;;;4987112;28;20633;-57
2021/05/29 06:10:51;;;;;;;4.07;3.77;;;15.10;95.40;;;;;;4983078;28;20538;-57
2021/05/29 06:21:34;;;;;;;6.43;3.97;;;15.70;93.40;;;;;;4983597;28;20285;-56
2021/05/29 06:24:00;;;;;;;3.90;3.60;;;15.90;93.60;;;;;;4984826;28;20200;-59
2021/05/29 06:26:26;;;;;;;3.75;3.45;;;15.70;93.50;;;;;;4983040;28;20274;-56
2021/05/29 06:28:52;;;;;;;8.57;7.90;;;15.60;93.30;;;;;;4983101;28;20200;-56
2021/05/29 06:31:18;;;;;;;3.80;3.50;;;15.70;93.40;;;;;;4988379;28;20621;-56
2021/05/29 06:33:44;;;;;;;3.43;3.13;;;15.60;93.60;;;;;;4984421;28;20246;-57
2021/05/29 06:36:09;;;;;;;4.40;3.40;;;16.00;93.40;;;;;;4986571;28;20702;-57
2021/05/29 06:38:35;;;;;;;3.77;3.40;;;15.80;92.90;;;;;;4989241;28;20642;-57
2021/05/29 06:41:01;;;;;;;4.43;3.33;;;16.00;92.90;;;;;;4988630;28;20562;-56
2021/05/29 06:43:27;;;;;;;3.27;3.00;;;16.10;92.60;;;;;;4989598;28;20450;-57
2021/05/29 06:45:53;;;;;;;5.10;3.40;;;16.50;91.50;;;;;;4988427;28;20677;-56
2021/05/29 06:48:20;;;;;;;3.60;3.30;;;16.40;91.20;;;;;;4985522;28;20195;-57
2021/05/29 06:50:52;;;;;;;3.50;3.22;;;16.40;91.80;;;;;;4988543;28;20541;-57
2021/05/29 06:53:23;;;;;;;3.50;3.22;;;16.60;91.70;;;;;;4983196;28;20218;-57
2021/05/29 07:01:05;;;;;;;3.92;3.22;;;18.00;88.50;;;;;;4985371;28;20176;-57
2021/05/29 07:03:30;;;;;;;3.47;3.28;;;18.50;84.80;;;;;;4982323;28;20550;-57
2021/05/29 07:05:56;;;;;;;4.70;3.10;;;20.00;80.70;;;;;;4985362;28;20204;-57
2021/05/29 07:08:27;;;;;;;3.30;2.60;;;21.60;77.10;;;;;;4980870;28;20191;-58
2021/05/29 07:10:53;;;;;;;2.73;2.40;;;23.60;67.30;;;;;;4983976;28;20740;-58
2021/05/29 07:13:19;;;;;;;3.03;2.83;;;25.50;60.80;;;;;;4989203;28;20514;-58
2021/05/29 07:15:44;;;;;;;2.97;2.77;;;27.50;55.10;;;;;;4987279;28;20207;-58
2021/05/29 07:18:12;;;;;;;4.90;2.33;;;27.50;52.30;;;;;;4987584;28;20984;-58
2021/05/29 07:20:40;;;;;;;3.33;2.20;;;29.50;47.60;;;;;;4988694;28;20707;-58
2021/05/29 07:23:07;;;;;;;2.63;2.40;;;30.70;45.40;;;;;;4986518;28;20445;-58
2021/05/29 07:25:33;;;;;;;2.10;2.00;;;31.50;42.90;;;;;;4987858;28;20472;-58
2021/05/29 07:27:59;;;;;;;2.47;2.33;;;33.10;39.90;;;;;;4988050;28;20481;-58
2021/05/29 07:30:25;;;;;;;3.20;2.40;;;32.40;37.00;;;;;;4987240;28;20474;-56
2021/05/29 07:32:52;;;;;;;2.60;2.40;;;32.90;36.20;;;;;;4986236;28;20788;-58
2021/05/29 07:35:18;;;;;;;3.93;2.20;;;32.50;37.00;;;;;;4987282;28;20462;-58
2021/05/29 07:37:44;;;;;;;2.57;2.30;;;32.70;37.10;;;;;;4985173;28;20465;-58
2021/05/29 07:40:10;;;;;;;3.47;3.20;;;33.30;35.90;;;;;;4985544;28;20592;-58
2021/05/29 07:42:36;;;;;;;2.37;2.17;;;33.00;35.00;;;;;;4985672;28;20227;-59
2021/05/29 07:45:04;;;;;;;4.57;2.30;;;33.50;35.20;;;;;;4980208;28;20470;-59
2021/05/29 07:47:30;;;;;;;2.60;2.40;;;34.90;33.20;;;;;;4980831;28;20471;-59
2021/05/29 07:49:56;;;;;;;2.70;2.50;;;35.90;31.80;;;;;;4982299;28;20458;-59
2021/05/29 07:52:21;;;;;;;2.80;2.60;;;33.60;32.50;;;;;;4987196;28;20200;-58
2021/05/29 07:54:47;;;;;;;3.03;2.77;;;33.30;32.30;;;;;;4985722;28;20577;-58
2021/05/29 07:57:15;;;;;;;2.20;2.10;;;32.70;33.30;;;;;;4985703;28;20184;-58
2021/05/29 07:59:42;;;;;;;2.23;2.00;;;34.10;33.50;;;;;;4992499;28;20203;-58
2021/05/29 08:02:09;;;;;;;1.83;1.73;;;34.30;30.80;;;;;;4990794;28;20465;-58
2021/05/29 08:04:35;;;;;;;2.30;2.10;;;34.10;31.30;;;;;;4990576;28;20521;-58
2021/05/29 08:07:01;;;;;;;2.30;2.10;;;33.90;31.20;;;;;;4990566;28;20447;-58
2021/05/29 08:09:27;;;;;;;2.40;2.20;;;33.80;31.50;;;;;;4992814;28;20864;-59
2021/05/29 08:11:52;;;;;;;2.57;2.37;;;34.00;30.10;;;;;;4991114;28;20275;-59
2021/05/29 08:14:18;;;;;;;2.00;1.90;;;32.50;30.90;;;;;;4990194;28;20234;-58
2021/05/29 08:16:44;;;;;;;1.70;1.60;;;32.90;31.90;;;;;;4990858;28;20210;-59
2021/05/29 08:19:12;;;;;;;1.70;1.60;;;34.60;30.00;;;;;;4990735;28;20187;-58
2021/05/29 08:21:39;;;;;;;3.13;2.23;;;35.50;27.90;;;;;;4990214;28;20195;-60
2021/05/29 08:24:06;;;;;;;2.00;1.90;;;34.20;29.20;;;;;;4988776;28;20445;-58
2021/05/29 08:26:32;;;;;;;1.90;1.80;;;34.00;28.60;;;;;;4990963;28;20462;-58
2021/05/29 08:28:58;;;;;;;4.67;2.30;;;32.80;30.20;;;;;;4988944;28;20441;-58
2021/05/29 08:31:24;;;;;;;3.50;2.17;;;32.60;29.20;;;;;;4991528;28;20454;-58
2021/05/29 08:33:50;;;;;;;2.20;2.00;;;33.30;30.00;;;;;;4991092;28;20637;-58
2021/05/29 08:36:16;;;;;;;1.80;1.70;;;33.00;30.00;;;;;;4985268;28;20452;-58
2021/05/29 08:38:42;;;;;;;2.50;2.00;;;33.30;29.50;;;;;;4988687;28;20956;-56
2021/05/29 08:41:08;;;;;;;2.77;2.57;;;33.10;29.50;;;;;;4991481;28;20466;-59
2021/05/29 08:43:34;;;;;;;3.90;2.70;;;32.10;30.80;;;;;;4987329;28;20430;-59
2021/05/29 08:46:00;;;;;;;2.47;2.37;;;31.10;32.40;;;;;;4990983;28;20229;-58
2021/05/29 08:48:25;;;;;;;2.27;2.10;;;30.40;33.20;;;;;;4989788;28;20454;-60
2021/05/29 08:53:35;;;;;;;2.03;1.70;;;32.40;31.40;;;;;;4992409;28;20237;-58
2021/05/29 08:56:01;;;;;;;1.77;1.67;;;31.20;32.20;;;;;;4989236;28;21009;-58
2021/05/29 08:58:29;;;;;;;4.30;1.90;;;32.40;31.40;;;;;;4991099;28;20210;-58
2021/05/29 09:00:55;;;;;;;2.40;1.90;;;33.10;30.50;;;;;;4987670;28;20532;-58
2021/05/29 09:03:20;;;;;;;2.23;2.13;;;32.00;30.40;;;;;;4983743;28;21124;-58
2021/05/29 09:05:52;;;;;;;2.10;2.00;;;33.20;30.50;;;;;;4986680;28;20720;-59
2021/05/29 09:08:21;;;;;;;2.40;2.20;;;33.20;30.00;;;;;;4981784;28;20282;-58
2021/05/29 09:10:55;;;;;;;3.00;2.37;;;31.90;29.90;;;;;;4987011;28;20493;-58
2021/05/29 09:13:25;;;;;;;2.00;1.63;;;31.80;30.10;;;;;;4983708;28;20467;-58
2021/05/29 09:16:02;;;;;;;4.30;2.60;;;32.80;29.40;;;;;;4983400;28;20995;-58
2021/05/29 09:18:45;;;;;;;2.27;2.07;;;32.60;29.80;;;;;;4983512;28;20442;-59
2021/05/29 09:21:11;;;;;;;1.90;1.80;;;34.20;28.90;;;;;;4981110;28;20438;-59
2021/05/29 09:23:48;;;;;;;3.37;1.87;;;34.20;27.70;;;;;;4999492;28;20856;-59
2021/05/29 09:26:14;;;;;;;3.60;2.40;;;33.70;28.60;;;;;;4982379;28;20226;-57
2021/05/29 09:28:42;;;;;;;1.70;1.60;;;33.00;28.40;;;;;;4982506;28;20478;-58
2021/05/29 09:31:16;;;;;;;1.77;1.67;;;33.10;28.40;;;;;;4985012;28;20431;-58
2021/05/29 09:33:44;;;;;;;2.20;2.00;;;33.00;29.20;;;;;;4984761;28;20446;-58
2021/05/29 09:36:12;;;;;;;2.90;2.60;;;33.50;28.90;;;;;;4983811;28;20992;-58
2021/05/29 09:38:41;;;;;;;3.10;2.90;;;31.60;29.60;;;;;;4985433;28;20490;-59
2021/05/29 09:41:27;;;;;;;2.67;2.00;;;32.00;31.70;;;;;;4984118;28;20473;-58
2021/05/29 09:44:05;;;;;;;1.90;1.80;;;32.30;31.00;;;;;;4982423;28;20808;-57
2021/05/29 09:46:53;;;;;;;2.33;2.07;;;32.90;30.00;;;;;;4981641;28;21017;-57
2021/05/29 09:49:19;;;;;;;2.57;2.40;;;33.10;29.90;;;;;;4985078;28;20461;-60
2021/05/29 09:51:44;;;;;;;3.07;2.77;;;31.50;30.10;;;;;;4984971;28;20835;-58
2021/05/29 09:54:11;;;;;;;3.30;3.00;;;30.70;32.20;;;;;;4983719;28;20256;-59
2021/05/29 09:56:43;;;;;;;2.90;2.70;;;29.90;33.30;;;;;;4985820;28;20253;-61
2021/05/29 09:59:17;;;;;;;2.33;2.13;;;30.00;33.20;;;;;;4984333;28;20846;-61
2021/05/29 10:01:51;;;;;;;2.20;2.10;;;30.90;32.70;;;;;;4978771;28;20494;-59
2021/05/29 10:06:59;;;;;;;2.70;2.50;;;29.80;33.20;;;;;;4984275;28;20538;-60
2021/05/29 10:09:26;;;;;;;2.30;2.20;;;29.60;34.10;;;;;;4981038;28;20444;-59
2021/05/29 10:11:52;;;;;;;3.30;3.00;;;28.90;35.50;;;;;;4982656;28;20553;-58
2021/05/29 10:14:18;;;;;;;2.73;2.53;;;27.30;36.50;;;;;;4979928;28;20553;-58
2021/05/29 10:16:44;;;;;;;2.40;2.30;;;26.60;38.40;;;;;;4982736;28;20465;-55
2021/05/29 10:19:10;;;;;;;3.40;3.10;;;25.90;40.20;;;;;;4981416;28;20449;-58
2021/05/29 10:21:37;;;;;;;2.93;2.73;;;25.40;41.50;;;;;;4983331;28;20945;-57
2021/05/29 10:24:04;;;;;;;2.80;2.60;;;25.70;41.70;;;;;;4983068;28;20537;-56
2021/05/29 10:26:30;;;;;;;2.40;2.20;;;25.50;41.90;;;;;;4983644;28;20485;-57
2021/05/29 10:28:56;;;;;;;2.07;1.87;;;24.90;42.00;;;;;;4982288;28;21011;-58
2021/05/29 10:31:27;;;;;;;2.27;2.07;;;24.50;42.30;;;;;;4983844;28;21236;-57
2021/05/29 10:33:53;;;;;;;2.40;2.20;;;25.40;42.10;;;;;;4982114;28;20529;-58
2021/05/29 10:36:54;;;;;;;2.40;2.30;;;26.10;41.10;;;;;;4982843;28;21152;-57
2021/05/29 10:39:23;;;;;;;2.40;2.20;;;26.50;40.10;;;;;;4984367;28;20214;-55
2021/05/29 10:41:58;;;;;;;2.23;2.13;;;26.30;39.30;;;;;;4982309;28;20455;-56
2021/05/29 10:44:37;;;;;;;2.03;1.93;;;27.10;38.30;;;;;;4981496;28;20443;-59
2021/05/29 10:47:20;;;;;;;1.70;1.60;;;26.40;36.80;;;;;;4984315;28;20795;-58
2021/05/29 10:50:07;;;;;;;2.27;1.90;;;27.70;36.20;;;;;;4984235;28;20449;-57
2021/05/29 10:55:16;;;;;;;2.13;1.93;;;28.50;34.30;;;;;;4983288;28;20858;-59
2021/05/29 10:58:06;;;;;;;2.13;1.60;;;27.60;35.30;;;;;;4996094;28;20224;-59
2021/05/29 11:00:38;;;;;;;1.43;1.33;;;27.40;35.10;;;;;;4980632;28;20453;-59
2021/05/29 11:03:16;;;;;;;1.60;1.50;;;28.20;33.80;;;;;;4982563;28;20441;-59
2021/05/29 11:05:42;;;;;;;3.00;1.50;;;28.70;34.00;;;;;;5001377;28;20454;-59
2021/05/29 11:08:46;;;;;;;2.80;1.50;;;28.70;33.90;;;;;;4979185;28;20899;-59
2021/05/29 11:14:29;;;;;;;1.53;1.43;;;29.10;33.20;;;;;;4956906;28;20442;-59
2021/05/29 11:16:56;;;;;;;3.83;3.53;;;28.40;32.40;;;;;;4980414;28;20422;-59
2021/05/29 11:19:41;;;;;;;1.83;1.73;;;28.90;33.70;;;;;;4987405;28;20505;-59
2021/05/29 11:22:19;;;;;;;1.77;1.67;;;29.40;33.10;;;;;;4981637;28;20747;-59
2021/05/29 11:24:53;;;;;;;2.30;1.77;;;27.50;34.60;;;;;;4987662;28;20450;-58
2021/05/29 11:27:26;;;;;;;1.70;1.60;;;26.40;36.00;;;;;;4991773;28;20449;-59
2021/05/29 11:30:08;;;;;;;1.90;1.80;;;25.80;37.50;;;;;;4990302;28;20451;-59
2021/05/29 11:35:41;;;;;;;2.43;1.43;;;26.60;33.00;;;;;;4987047;28;20501;-59
2021/05/29 11:40:51;;;;;;;4.07;2.00;;;26.40;34.60;;;;;;4987915;28;20437;-59
2021/05/29 11:43:31;;;;;;;2.70;1.60;;;25.50;35.10;;;;;;4989245;28;20439;-59
2021/05/29 11:45:58;;;;;;;1.10;1.00;;;24.80;35.50;;;;;;4990925;28;20469;-58
2021/05/29 11:48:32;;;;;;;2.00;1.40;;;24.20;35.70;;;;;;4989620;28;20956;-58
2021/05/29 11:51:11;;;;;;;1.90;1.70;;;23.90;37.00;;;;;;4989902;28;20434;-59
2021/05/29 11:53:38;;;;;;;1.63;1.40;;;24.10;37.80;;;;;;4982259;28;20474;-58
2021/05/29 11:56:06;;;;;;;1.50;1.40;;;23.90;37.10;;;;;;4989469;28;20469;-59
2021/05/29 11:58:44;;;;;;;1.30;1.20;;;23.60;37.30;;;;;;4982714;28;20450;-59
2021/05/29 12:01:10;;;;;;;1.60;1.50;;;23.50;36.30;;;;;;4988217;28;20443;-58
2021/05/29 12:03:58;;;;;;;1.80;1.40;;;23.10;37.40;;;;;;4988886;28;20446;-58
2021/05/29 12:06:54;;;;;;;1.37;1.27;;;23.20;37.50;;;;;;5004516;28;20841;-59
2021/05/29 12:09:28;;;;;;;1.27;1.17;;;23.20;37.20;;;;;;4989296;28;20442;-59
2021/05/29 12:11:57;;;;;;;2.10;1.10;;;23.10;36.90;;;;;;4988248;28;20195;-59
2021/05/29 12:14:31;;;;;;;2.33;1.10;;;22.90;36.80;;;;;;5006487;28;20211;-59
2021/05/29 12:17:03;;;;;;;1.35;1.25;;;22.70;37.80;;;;;;4987672;28;20446;-59
2021/05/29 12:19:52;;;;;;;2.28;1.30;;;22.60;38.20;;;;;;5000030;28;20188;-59
2021/05/29 12:22:20;;;;;;;1.60;1.50;;;22.40;37.60;;;;;;4984741;28;20179;-59
2021/05/29 12:24:51;;;;;;;1.50;1.40;;;22.20;37.80;;;;;;4989186;28;20285;-59
2021/05/29 12:27:22;;;;;;;1.60;1.45;;;22.10;36.30;;;;;;4981972;28;20214;-59
2021/05/29 12:29:48;;;;;;;1.33;1.23;;;22.30;35.70;;;;;;4987281;28;20688;-59
2021/05/29 12:32:39;;;;;;;1.37;1.27;;;22.30;36.70;;;;;;4981362;28;20203;-59
2021/05/29 12:35:26;;;;;;;1.30;1.17;;;22.40;37.70;;;;;;5005900;28;20466;-59
2021/05/29 12:37:52;;;;;;;1.00;0.90;;;22.60;37.90;;;;;;4988651;28;20176;-59
2021/05/29 12:40:17;;;;;;;0.80;0.80;;;22.20;37.30;;;;;;4985577;28;20227;-59
2021/05/29 12:42:53;;;;;;;1.43;1.33;;;21.90;37.40;;;;;;4989707;28;20191;-59
2021/05/29 12:45:26;;;;;;;1.35;1.25;;;21.80;38.70;;;;;;4990214;28;20218;-59
2021/05/29 12:47:59;;;;;;;1.10;1.00;;;21.60;40.10;;;;;;4987795;28;20326;-59
2021/05/29 12:50:37;;;;;;;1.20;1.10;;;21.40;39.30;;;;;;4986520;28;20281;-59
2021/05/29 12:53:17;;;;;;;1.45;1.35;;;21.30;40.20;;;;;;5003322;28;20203;-59
2021/05/29 12:55:44;;;;;;;1.70;1.35;;;21.00;41.60;;;;;;5005803;28;20215;-59
2021/05/29 12:58:18;;;;;;;2.35;1.23;;;21.00;41.30;;;;;;4988798;28;20183;-59
2021/05/29 13:11:48;;;;;;;1.20;1.10;;;20.90;42.80;;;;;;4982981;28;20208;-59
2021/05/29 13:14:17;;;;;;;1.60;1.30;;;20.80;43.10;;;;;;4988450;28;20577;-56
2021/05/29 13:16:46;;;;;;;1.38;1.27;;;20.90;43.30;;;;;;4989191;28;20211;-56
2021/05/29 13:19:12;;;;;;;1.58;1.48;;;21.00;43.50;;;;;;4982522;28;20757;-56
2021/05/29 13:21:57;;;;;;;2.40;1.63;;;21.20;43.60;;;;;;5003733;28;20258;-56
2021/05/29 13:24:59;;;;;;;1.75;1.65;;;21.50;42.70;;;;;;4997604;28;20184;-56
2021/05/29 13:27:33;;;;;;;1.65;1.30;;;21.60;41.80;;;;;;4927751;29;20192;-55
2021/05/29 13:30:20;;;;;;;1.30;1.20;;;21.40;41.90;;;;;;4979741;28;20199;-57
2021/05/29 13:33:04;;;;;;;1.70;1.60;;;21.40;42.20;;;;;;4983371;28;20195;-58
2021/05/29 13:35:30;;;;;;;2.90;2.58;;;21.20;42.40;;;;;;4981585;28;20207;-58
2021/05/29 13:37:55;;;;;;;1.42;1.33;;;21.30;43.40;;;;;;4981593;28;20212;-58